createdAt,value
2018-08-13T00:00:28.916Z,24.10
2018-08-13T00:03:02.388Z,24.10
2018-08-13T00:05:35.883Z,24.10
2018-08-13T00:08:09.392Z,23.90
2018-08-13T00:10:42.880Z,24.00
2018-08-13T00:13:16.426Z,23.70
2018-08-13T00:15:49.923Z,23.80
2018-08-13T00:18:23.438Z,23.90
2018-08-13T00:20:56.940Z,23.90
2018-08-13T00:23:30.419Z,24.00
2018-08-13T00:26:03.902Z,23.90
2018-08-13T00:28:37.330Z,23.90
2018-08-13T00:31:10.789Z,23.60
2018-08-13T00:33:44.202Z,23.40
2018-08-13T00:36:17.643Z,23.30
2018-08-13T00:38:51.049Z,23.00
2018-08-13T00:41:24.519Z,22.90
2018-08-13T00:43:57.952Z,22.80
2018-08-13T00:46:31.398Z,22.90
2018-08-13T00:49:05.588Z,23.10
2018-08-13T00:51:39.087Z,23.20
2018-08-13T00:54:12.496Z,23.30
2018-08-13T00:56:45.968Z,23.30
2018-08-13T00:59:19.402Z,23.40
2018-08-13T01:01:52.882Z,23.30
2018-08-13T01:04:26.315Z,23.20
2018-08-13T01:06:59.779Z,23.20
2018-08-13T01:09:33.238Z,23.20
2018-08-13T01:12:06.770Z,23.20
2018-08-13T01:14:40.181Z,22.90
2018-08-13T01:17:13.660Z,22.90
2018-08-13T01:19:47.099Z,22.80
2018-08-13T01:22:20.562Z,22.90
2018-08-13T01:24:53.970Z,22.90
2018-08-13T01:27:31.600Z,22.90
2018-08-13T01:30:05.427Z,22.80
2018-08-13T01:32:38.934Z,22.70
2018-08-13T01:35:12.356Z,22.80
2018-08-13T01:37:45.821Z,22.80
2018-08-13T01:40:19.282Z,22.80
2018-08-13T01:42:52.731Z,22.80
2018-08-13T01:45:26.231Z,22.80
2018-08-13T01:47:59.694Z,22.90
2018-08-13T01:50:33.131Z,22.60
2018-08-13T01:53:09.495Z,22.40
2018-08-13T01:55:42.960Z,22.60
2018-08-13T01:58:16.447Z,22.50
2018-08-13T02:00:49.967Z,22.40
2018-08-13T02:03:23.445Z,22.30
2018-08-13T02:05:56.896Z,22.20
2018-08-13T02:08:30.346Z,22.20
2018-08-13T02:11:03.979Z,22.30
2018-08-13T02:13:37.527Z,22.30
2018-08-13T02:16:11.035Z,22.40
2018-08-13T02:18:44.578Z,22.50
2018-08-13T02:21:18.029Z,22.50
2018-08-13T02:23:51.584Z,22.40
2018-08-13T02:26:25.051Z,22.30
2018-08-13T02:28:58.524Z,22.10
2018-08-13T02:31:31.985Z,21.70
2018-08-13T02:34:05.475Z,21.70
2018-08-13T02:36:38.944Z,21.90
2018-08-13T02:39:13.097Z,22.00
2018-08-13T02:41:46.538Z,22.00
2018-08-13T02:44:20.004Z,22.10
2018-08-13T02:46:53.462Z,22.10
2018-08-13T02:49:26.935Z,22.20
2018-08-13T02:52:00.402Z,22.20
2018-08-13T02:54:33.835Z,22.20
2018-08-13T02:57:07.548Z,22.20
2018-08-13T02:59:41.024Z,22.20
2018-08-13T03:02:14.439Z,22.00
2018-08-13T03:04:47.979Z,22.00
2018-08-13T03:07:21.365Z,22.10
2018-08-13T03:09:54.810Z,22.10
2018-08-13T03:12:28.242Z,22.00
2018-08-13T03:15:01.672Z,21.80
2018-08-13T03:17:35.113Z,21.40
2018-08-13T03:20:09.044Z,21.50
2018-08-13T03:22:42.552Z,21.60
2018-08-13T03:25:15.975Z,21.70
2018-08-13T03:27:49.443Z,21.70
2018-08-13T03:30:22.903Z,21.60
2018-08-13T03:32:56.340Z,21.60
2018-08-13T03:35:29.756Z,21.40
2018-08-13T03:38:03.190Z,21.20
2018-08-13T03:40:36.612Z,21.20
2018-08-13T03:43:10.019Z,21.20
2018-08-13T03:45:43.474Z,21.20
2018-08-13T03:48:16.896Z,21.20
2018-08-13T03:50:50.317Z,21.10
2018-08-13T03:53:23.739Z,21.20
2018-08-13T03:55:57.166Z,21.10
2018-08-13T03:58:30.691Z,21.20
2018-08-13T04:01:04.569Z,21.10
2018-08-13T04:03:38.037Z,21.10
2018-08-13T04:06:11.522Z,21.20
2018-08-13T04:08:44.971Z,21.10
2018-08-13T04:11:18.410Z,21.20
2018-08-13T04:13:53.951Z,21.20
2018-08-13T04:16:27.415Z,21.10
2018-08-13T04:19:00.902Z,21.10
2018-08-13T04:21:34.406Z,21.20
2018-08-13T04:24:07.843Z,21.10
2018-08-13T04:26:41.250Z,21.10
2018-08-13T04:29:14.722Z,21.30
2018-08-13T04:31:48.154Z,21.70
2018-08-13T04:34:21.623Z,22.20
2018-08-13T04:36:55.119Z,22.70
2018-08-13T04:39:28.546Z,23.00
2018-08-13T04:42:01.978Z,23.40
2018-08-13T04:44:35.415Z,23.70
2018-08-13T04:47:08.839Z,23.90
2018-08-13T04:49:42.273Z,24.00
2018-08-13T04:52:15.713Z,24.20
2018-08-13T04:54:49.151Z,24.40
2018-08-13T04:57:22.578Z,24.60
2018-08-13T04:59:56.045Z,24.60
2018-08-13T05:02:29.465Z,24.70
2018-08-13T05:05:02.958Z,24.80
2018-08-13T05:07:36.468Z,24.90
2018-08-13T05:10:11.272Z,24.90
2018-08-13T05:12:44.850Z,24.90
2018-08-13T05:15:18.290Z,24.90
2018-08-13T05:17:51.735Z,25.00
2018-08-13T05:20:25.149Z,25.10
2018-08-13T05:22:58.571Z,25.10
2018-08-13T05:25:32.020Z,25.10
2018-08-13T05:28:05.529Z,25.20
2018-08-13T05:30:39.020Z,25.20
2018-08-13T05:33:12.455Z,25.30
2018-08-13T05:35:45.910Z,25.40
2018-08-13T05:38:19.447Z,25.50
2018-08-13T05:40:52.867Z,25.70
2018-08-13T05:43:26.294Z,25.80
2018-08-13T05:45:59.757Z,25.60
2018-08-13T05:48:33.214Z,25.10
2018-08-13T05:51:06.769Z,24.80
2018-08-13T05:53:40.217Z,24.90
2018-08-13T05:56:13.638Z,25.00
2018-08-13T05:58:47.135Z,25.00
2018-08-13T06:01:20.613Z,25.00
2018-08-13T06:03:54.050Z,25.10
2018-08-13T06:06:27.512Z,25.10
2018-08-13T06:09:00.923Z,25.10
2018-08-13T06:11:34.379Z,25.10
2018-08-13T06:14:08.012Z,24.90
2018-08-13T06:16:41.482Z,25.00
2018-08-13T06:19:14.970Z,24.90
2018-08-13T06:21:48.509Z,24.80
2018-08-13T06:24:22.044Z,24.80
2018-08-13T06:26:55.452Z,24.80
2018-08-13T06:29:28.907Z,24.80
2018-08-13T06:32:02.322Z,24.70
2018-08-13T06:34:35.761Z,24.60
2018-08-13T06:37:09.228Z,24.60
2018-08-13T06:39:42.667Z,24.60
2018-08-13T06:42:16.171Z,24.50
2018-08-13T06:44:49.607Z,24.50
2018-08-13T06:47:23.082Z,24.60
2018-08-13T06:49:56.496Z,24.60
2018-08-13T06:52:29.998Z,24.50
2018-08-13T06:55:03.478Z,24.40
2018-08-13T06:57:36.984Z,24.30
2018-08-13T07:00:12.419Z,24.20
2018-08-13T07:02:45.838Z,24.10
2018-08-13T07:05:19.253Z,24.00
2018-08-13T07:07:52.735Z,24.00
2018-08-13T07:10:26.218Z,23.90
2018-08-13T07:12:59.903Z,23.70
2018-08-13T07:15:33.419Z,23.60
2018-08-13T07:18:06.906Z,23.60
2018-08-13T07:20:40.333Z,23.60
2018-08-13T07:23:13.778Z,23.50
2018-08-13T07:25:47.227Z,23.40
2018-08-13T07:28:20.707Z,23.30
2018-08-13T07:30:54.183Z,23.40
2018-08-13T07:33:27.719Z,23.30
2018-08-13T07:36:01.118Z,23.10
2018-08-13T07:38:34.553Z,23.20
2018-08-13T07:41:08.174Z,23.20
2018-08-13T07:43:41.636Z,23.20
2018-08-13T07:46:15.082Z,23.30
2018-08-13T07:48:48.567Z,23.10
2018-08-13T07:51:22.041Z,23.20
2018-08-13T07:53:55.568Z,23.20
2018-08-13T07:56:28.995Z,23.30
2018-08-13T07:59:02.612Z,23.30
2018-08-13T08:01:36.075Z,23.30
2018-08-13T08:04:09.574Z,23.40
2018-08-13T08:06:43.058Z,23.50
2018-08-13T08:09:24.152Z,23.60
2018-08-13T08:11:57.581Z,23.50
2018-08-13T08:14:31.093Z,23.50
2018-08-13T08:17:04.560Z,23.70
2018-08-13T08:19:38.071Z,23.80
2018-08-13T08:22:11.495Z,23.90
2018-08-13T08:24:44.963Z,24.00
2018-08-13T08:27:18.415Z,24.20
2018-08-13T08:29:51.912Z,24.00
2018-08-13T08:32:25.386Z,24.00
2018-08-13T08:34:58.862Z,24.10
2018-08-13T08:37:32.334Z,24.20
2018-08-13T08:40:07.134Z,24.20
2018-08-13T08:42:40.614Z,24.10
2018-08-13T08:45:16.538Z,24.20
2018-08-13T08:47:50.441Z,24.00
2018-08-13T08:50:23.946Z,24.00
2018-08-13T08:52:57.431Z,24.10
2018-08-13T08:55:30.903Z,24.00
2018-08-13T08:58:04.377Z,23.90
2018-08-13T09:00:37.782Z,23.80
2018-08-13T09:03:11.210Z,23.70
2018-08-13T09:05:48.501Z,23.70
2018-08-13T09:08:21.963Z,23.80
2018-08-13T09:10:55.398Z,23.70
2018-08-13T09:13:28.834Z,23.70
2018-08-13T09:16:02.310Z,23.70
2018-08-13T09:18:47.198Z,23.70
2018-08-13T09:21:28.785Z,23.70
2018-08-13T09:24:14.436Z,23.60
2018-08-13T09:26:59.094Z,23.60
2018-08-13T09:29:43.885Z,23.60
2018-08-13T09:32:31.693Z,23.50
2018-08-13T09:35:37.979Z,23.60
2018-08-13T09:38:11.434Z,23.60
2018-08-13T09:40:44.869Z,23.60
2018-08-13T09:43:18.302Z,23.60
2018-08-13T09:45:51.794Z,23.70
2018-08-13T09:48:25.262Z,23.60
2018-08-13T09:50:58.727Z,23.60
2018-08-13T09:53:32.180Z,23.40
2018-08-13T09:56:05.677Z,23.30
2018-08-13T09:58:39.072Z,23.40
2018-08-13T10:01:13.179Z,23.40
2018-08-13T10:03:46.590Z,23.50
2018-08-13T10:06:20.086Z,23.40
2018-08-13T10:08:53.514Z,23.30
2018-08-13T10:11:26.961Z,23.30
2018-08-13T10:14:00.382Z,23.20
2018-08-13T10:16:33.838Z,23.40
2018-08-13T10:19:07.238Z,23.40
2018-08-13T10:21:40.852Z,23.50
2018-08-13T10:24:14.274Z,23.50
2018-08-13T10:26:47.776Z,23.70
2018-08-13T10:29:21.495Z,23.60
2018-08-13T10:31:54.934Z,23.80
2018-08-13T10:34:28.486Z,23.70
2018-08-13T10:37:01.935Z,23.80
2018-08-13T10:39:36.491Z,23.90
2018-08-13T10:42:09.917Z,23.80
2018-08-13T10:44:43.340Z,23.80
2018-08-13T10:47:16.802Z,24.00
2018-08-13T10:49:50.261Z,24.10
2018-08-13T10:52:23.706Z,23.90
2018-08-13T10:54:57.106Z,23.90
2018-08-13T10:57:30.611Z,24.00
2018-08-13T11:00:05.655Z,24.00
2018-08-13T11:02:39.191Z,23.90
2018-08-13T11:05:13.559Z,24.00
2018-08-13T11:07:46.990Z,24.00
2018-08-13T11:10:20.465Z,24.00
2018-08-13T11:12:53.925Z,24.00
2018-08-13T11:15:27.386Z,24.00
2018-08-13T11:18:00.995Z,24.00
2018-08-13T11:20:34.414Z,24.00
2018-08-13T11:23:07.896Z,23.90
2018-08-13T11:25:41.303Z,23.90
2018-08-13T11:28:14.783Z,24.10
2018-08-13T11:30:48.202Z,24.30
2018-08-13T11:33:21.723Z,24.30
2018-08-13T11:35:55.163Z,24.20
2018-08-13T11:38:28.590Z,24.30
2018-08-13T11:41:02.067Z,24.50
2018-08-13T11:43:35.487Z,24.60
2018-08-13T11:46:08.908Z,24.50
2018-08-13T11:48:42.332Z,24.50
2018-08-13T11:51:15.770Z,24.50
2018-08-13T11:53:49.225Z,24.50
2018-08-13T11:56:22.683Z,24.60
2018-08-13T11:58:56.170Z,24.80
2018-08-13T12:01:29.562Z,24.90
2018-08-13T12:04:03.051Z,24.80
2018-08-13T12:06:36.464Z,24.90
2018-08-13T12:09:12.735Z,25.10
2018-08-13T12:11:46.182Z,25.30
2018-08-13T12:14:19.606Z,25.40
2018-08-13T12:16:53.159Z,25.50
2018-08-13T12:19:26.632Z,25.50
2018-08-13T12:22:00.050Z,25.50
2018-08-13T12:24:33.482Z,25.50
2018-08-13T12:27:06.936Z,25.40
2018-08-13T12:29:40.379Z,25.20
2018-08-13T12:32:13.839Z,24.90
2018-08-13T12:34:47.254Z,24.90
2018-08-13T12:37:20.729Z,24.90
2018-08-13T12:39:54.190Z,24.60
2018-08-13T12:42:27.630Z,24.40
2018-08-13T12:45:01.066Z,24.50
2018-08-13T12:47:34.478Z,23.90
2018-08-13T12:50:10.339Z,23.50
2018-08-13T12:52:44.982Z,23.30
2018-08-13T12:55:18.540Z,23.30
2018-08-13T12:57:52.003Z,23.40
2018-08-13T13:00:25.490Z,23.30
2018-08-13T13:02:58.914Z,23.20
2018-08-13T13:05:32.450Z,23.10
2018-08-13T13:08:05.866Z,23.20
2018-08-13T13:10:39.348Z,23.50
2018-08-13T13:13:12.835Z,23.70
2018-08-13T13:15:46.304Z,23.80
2018-08-13T13:18:19.751Z,23.80
2018-08-13T13:20:53.238Z,23.90
2018-08-13T13:23:26.669Z,24.10
2018-08-13T13:26:00.169Z,24.30
2018-08-13T13:28:33.619Z,24.30
2018-08-13T13:31:07.183Z,24.40
2018-08-13T13:33:40.614Z,24.30
2018-08-13T13:36:14.054Z,24.10
2018-08-13T13:38:47.482Z,24.10
2018-08-13T13:41:20.922Z,24.20
2018-08-13T13:43:54.343Z,24.20
2018-08-13T13:46:27.774Z,24.30
2018-08-13T13:49:01.220Z,24.30
2018-08-13T13:51:34.675Z,24.40
2018-08-13T13:54:08.143Z,24.40
2018-08-13T13:56:41.842Z,24.40
2018-08-13T13:59:15.360Z,24.40
2018-08-13T14:01:48.861Z,24.50
2018-08-13T14:04:22.572Z,24.60
2018-08-13T14:06:56.001Z,24.60
2018-08-13T14:09:29.430Z,24.60
2018-08-13T14:12:03.057Z,24.50
2018-08-13T14:14:36.485Z,24.40
2018-08-13T14:17:09.937Z,24.40
2018-08-13T14:19:43.342Z,24.50
2018-08-13T14:22:16.817Z,24.50
2018-08-13T14:24:50.246Z,24.60
2018-08-13T14:27:23.694Z,24.50
2018-08-13T14:29:57.134Z,24.50
2018-08-13T14:32:30.938Z,24.40
2018-08-13T14:35:04.678Z,24.40
2018-08-13T14:37:38.446Z,24.60
2018-08-13T14:40:12.879Z,24.60
2018-08-13T14:42:46.378Z,24.60
2018-08-13T14:45:20.083Z,24.70
2018-08-13T14:47:53.558Z,24.70
2018-08-13T14:50:26.990Z,24.80
2018-08-13T14:53:00.451Z,24.80
2018-08-13T14:55:33.926Z,24.80
2018-08-13T14:58:07.465Z,24.70
2018-08-13T15:00:41.130Z,24.90
2018-08-13T15:03:14.646Z,24.90
2018-08-13T15:05:48.106Z,25.10
2018-08-13T15:08:21.572Z,25.10
2018-08-13T15:10:55.039Z,25.20
2018-08-13T15:13:28.444Z,25.30
2018-08-13T15:16:01.858Z,25.30
2018-08-13T15:18:35.265Z,25.50
2018-08-13T15:21:08.749Z,25.40
2018-08-13T15:23:42.176Z,25.40
2018-08-13T15:26:15.642Z,25.60
2018-08-13T15:28:59.458Z,25.60
2018-08-13T15:31:33.025Z,25.70
2018-08-13T15:34:22.239Z,25.80
2018-08-13T15:37:06.264Z,25.80
2018-08-13T15:39:39.818Z,25.70
2018-08-13T15:42:13.280Z,25.70
2018-08-13T15:44:46.700Z,25.70
2018-08-13T15:47:20.167Z,25.80
2018-08-13T15:49:53.579Z,25.70
2018-08-13T15:52:27.062Z,25.60
2018-08-13T15:55:00.493Z,25.60
2018-08-13T15:57:47.001Z,25.70
2018-08-13T16:00:23.620Z,25.60
2018-08-13T16:02:57.086Z,25.70
2018-08-13T16:05:30.521Z,25.50
2018-08-13T16:08:04.000Z,25.50
2018-08-13T16:10:37.427Z,25.50
2018-08-13T16:13:10.875Z,25.40
2018-08-13T16:15:44.325Z,25.30
2018-08-13T16:18:17.722Z,25.40
2018-08-13T16:20:51.143Z,25.30
2018-08-13T16:23:24.590Z,25.30
2018-08-13T16:25:59.038Z,25.20
2018-08-13T16:28:32.530Z,25.20
2018-08-13T16:31:06.035Z,25.20
2018-08-13T16:33:39.502Z,25.20
2018-08-13T16:36:12.942Z,25.20
2018-08-13T16:38:46.419Z,25.10
2018-08-13T16:41:19.846Z,25.10
2018-08-13T16:43:53.257Z,25.10
2018-08-13T16:46:26.710Z,25.10
2018-08-13T16:49:00.170Z,25.10
2018-08-13T16:51:33.612Z,25.10
2018-08-13T16:54:07.050Z,25.10
2018-08-13T16:56:40.507Z,25.00
2018-08-13T16:59:13.972Z,25.10
2018-08-13T17:01:47.419Z,25.10
2018-08-13T17:04:20.863Z,25.10
2018-08-13T17:06:54.258Z,24.90
2018-08-13T17:09:27.730Z,24.90
2018-08-13T17:12:01.223Z,24.90
2018-08-13T17:14:34.750Z,25.10
2018-08-13T17:17:08.115Z,25.10
2018-08-13T17:19:41.602Z,25.00
2018-08-13T17:22:15.032Z,25.20
2018-08-13T17:24:48.531Z,25.10
2018-08-13T17:27:21.999Z,24.90
2018-08-13T17:29:55.505Z,24.90
2018-08-13T17:32:28.956Z,24.90
2018-08-13T17:35:02.431Z,24.90
2018-08-13T17:37:35.882Z,24.90
2018-08-13T17:40:12.255Z,24.90
2018-08-13T17:42:46.404Z,24.90
2018-08-13T17:45:19.893Z,25.00
2018-08-13T17:47:53.323Z,24.90
2018-08-13T17:50:26.810Z,25.00
2018-08-13T17:53:00.226Z,25.00
2018-08-13T17:55:33.706Z,24.90
2018-08-13T17:58:07.178Z,24.90
2018-08-13T18:00:40.658Z,24.90
2018-08-13T18:03:14.161Z,25.10
2018-08-13T18:05:47.666Z,25.00
2018-08-13T18:08:21.120Z,25.00
2018-08-13T18:10:54.582Z,25.00
2018-08-13T18:13:28.023Z,24.90
2018-08-13T18:16:01.483Z,24.90
2018-08-13T18:18:34.953Z,24.90
2018-08-13T18:21:08.396Z,24.90
2018-08-13T18:23:41.802Z,25.00
2018-08-13T18:26:15.203Z,24.90
2018-08-13T18:28:48.610Z,24.80
2018-08-13T18:31:22.061Z,24.90
2018-08-13T18:33:55.519Z,24.90
2018-08-13T18:36:29.019Z,24.80
2018-08-13T18:39:02.475Z,24.80
2018-08-13T18:41:35.911Z,24.70
2018-08-13T18:44:09.762Z,24.70
2018-08-13T18:46:43.190Z,24.60
2018-08-13T18:49:16.675Z,24.60
2018-08-13T18:51:50.111Z,24.50
2018-08-13T18:54:23.578Z,24.50
2018-08-13T18:56:57.018Z,24.40
2018-08-13T18:59:30.470Z,24.40
2018-08-13T19:02:03.982Z,24.30
2018-08-13T19:04:37.483Z,24.20
2018-08-13T19:07:11.078Z,24.20
2018-08-13T19:09:44.764Z,24.20
2018-08-13T19:12:18.182Z,24.00
2018-08-13T19:14:51.638Z,24.00
2018-08-13T19:17:25.139Z,23.90
2018-08-13T19:19:58.630Z,23.90
2018-08-13T19:22:32.548Z,23.60
2018-08-13T19:25:08.077Z,23.70
2018-08-13T19:27:41.603Z,23.60
2018-08-13T19:30:16.909Z,23.60
2018-08-13T19:32:51.426Z,23.50
2018-08-13T19:35:25.142Z,23.40
2018-08-13T19:37:58.986Z,23.50
2018-08-13T19:40:32.608Z,23.40
2018-08-13T19:43:06.538Z,23.30
2018-08-13T19:45:41.154Z,23.30
2018-08-13T19:48:15.078Z,23.20
2018-08-13T19:50:49.380Z,23.10
2018-08-13T19:53:24.132Z,23.10
2018-08-13T19:55:58.300Z,23.10
2018-08-13T19:58:31.895Z,23.10
2018-08-13T20:01:05.973Z,23.10
2018-08-13T20:03:39.570Z,23.10
2018-08-13T20:06:13.304Z,23.10
2018-08-13T20:08:47.653Z,23.10
2018-08-13T20:11:21.193Z,22.90
2018-08-13T20:13:54.662Z,23.00
2018-08-13T20:16:28.168Z,22.90
2018-08-13T20:19:02.093Z,22.90
2018-08-13T20:21:36.306Z,22.90
2018-08-13T20:24:09.894Z,22.90
2018-08-13T20:26:44.291Z,22.90
2018-08-13T20:29:17.906Z,22.80
2018-08-13T20:31:51.574Z,22.60
2018-08-13T20:34:25.001Z,22.70
2018-08-13T20:36:58.678Z,22.70
2018-08-13T20:39:32.820Z,22.70
2018-08-13T20:42:06.558Z,22.60
2018-08-13T20:44:42.474Z,22.50
2018-08-13T20:47:15.947Z,22.40
2018-08-13T20:49:49.400Z,22.30
2018-08-13T20:52:22.877Z,22.40
2018-08-13T20:54:56.305Z,22.40
2018-08-13T20:57:29.767Z,22.40
2018-08-13T21:00:03.901Z,22.40
2018-08-13T21:02:37.856Z,22.30
2018-08-13T21:05:12.156Z,22.30
2018-08-13T21:07:46.489Z,22.30
2018-08-13T21:10:21.790Z,22.40
2018-08-13T21:12:56.390Z,22.30
2018-08-13T21:15:29.825Z,22.20
2018-08-13T21:18:03.320Z,22.20
2018-08-13T21:20:37.006Z,22.20
2018-08-13T21:23:11.248Z,22.20
2018-08-13T21:25:44.723Z,22.20
2018-08-13T21:28:18.230Z,22.10
2018-08-13T21:30:51.703Z,22.10
2018-08-13T21:33:25.163Z,22.20
2018-08-13T21:35:58.702Z,22.20
2018-08-13T21:38:32.206Z,22.10
2018-08-13T21:41:05.694Z,22.10
2018-08-13T21:43:39.163Z,22.20
2018-08-13T21:46:13.240Z,22.00
2018-08-13T21:48:47.877Z,22.00
2018-08-13T21:51:21.962Z,22.00
2018-08-13T21:53:55.463Z,22.00
2018-08-13T21:56:28.942Z,22.00
2018-08-13T21:59:02.588Z,21.90
2018-08-13T22:01:41.495Z,21.80
2018-08-13T22:04:16.380Z,21.80
2018-08-13T22:06:49.830Z,21.90
2018-08-13T22:09:23.322Z,21.90
2018-08-13T22:11:56.814Z,21.90
2018-08-13T22:14:30.261Z,21.80
2018-08-13T22:17:03.743Z,21.90
2018-08-13T22:19:37.207Z,21.70
2018-08-13T22:22:10.819Z,21.70
2018-08-13T22:24:58.539Z,21.70
2018-08-13T22:27:31.962Z,21.70
2018-08-13T22:30:06.871Z,21.50
2018-08-13T22:32:40.331Z,21.50
2018-08-13T22:35:13.818Z,21.60
2018-08-13T22:37:47.268Z,21.60
2018-08-13T22:40:21.405Z,21.60
2018-08-13T22:42:54.971Z,21.60
2018-08-13T22:45:28.389Z,21.60
2018-08-13T22:48:01.841Z,21.60
2018-08-13T22:50:35.278Z,21.60
2018-08-13T22:53:08.772Z,21.50
2018-08-13T22:55:42.242Z,21.50
2018-08-13T22:58:15.666Z,21.50
2018-08-13T23:00:49.107Z,21.40
2018-08-13T23:03:22.553Z,21.30
2018-08-13T23:05:55.957Z,21.40
2018-08-13T23:08:29.453Z,21.50
2018-08-13T23:11:02.856Z,21.40
2018-08-13T23:13:36.360Z,21.40
2018-08-13T23:16:09.827Z,21.40
2018-08-13T23:18:43.274Z,21.40
2018-08-13T23:21:16.715Z,21.50
2018-08-13T23:23:50.150Z,21.50
2018-08-13T23:26:23.575Z,21.40
2018-08-13T23:28:57.017Z,21.40
2018-08-13T23:31:30.470Z,21.30
2018-08-13T23:34:03.970Z,21.30
2018-08-13T23:36:41.367Z,21.20
2018-08-13T23:39:14.825Z,21.20
2018-08-13T23:41:48.296Z,21.30
2018-08-13T23:44:21.741Z,21.30
2018-08-13T23:46:55.150Z,21.30
2018-08-13T23:49:28.578Z,21.30
2018-08-13T23:52:02.010Z,21.30
2018-08-13T23:54:35.479Z,21.30
2018-08-13T23:57:08.950Z,21.20
2018-08-13T23:59:42.398Z,21.10
